createdAt,value
2017-09-27T00:00:39.381Z,99.99
2017-09-27T00:01:39.359Z,99.99
2017-09-27T00:02:39.351Z,99.99
2017-09-27T00:03:39.320Z,99.99
2017-09-27T00:04:38.999Z,99.99
2017-09-27T00:05:39.289Z,99.99
2017-09-27T00:06:39.268Z,99.99
2017-09-27T00:07:38.965Z,99.99
2017-09-27T00:08:38.919Z,99.99
2017-09-27T00:09:39.309Z,99.99
2017-09-27T00:10:39.203Z,99.99
2017-09-27T00:11:39.189Z,99.99
2017-09-27T00:12:39.158Z,99.99
2017-09-27T00:13:39.150Z,99.99
2017-09-27T00:14:39.127Z,99.99
2017-09-27T00:15:38.859Z,99.99
2017-09-27T00:16:39.110Z,99.99
2017-09-27T00:17:39.073Z,99.99
2017-09-27T00:18:39.051Z,99.99
2017-09-27T00:19:38.743Z,99.99
2017-09-27T00:20:39.018Z,99.99
2017-09-27T00:21:39.049Z,99.99
2017-09-27T00:22:38.682Z,99.99
2017-09-27T00:23:38.999Z,99.99
2017-09-27T00:24:38.950Z,99.99
2017-09-27T00:25:38.773Z,99.99
2017-09-27T00:26:38.615Z,99.99
2017-09-27T00:27:38.630Z,99.99
2017-09-27T00:28:38.569Z,99.99
2017-09-27T00:29:38.613Z,99.99
2017-09-27T00:30:38.909Z,99.99
2017-09-27T00:31:38.843Z,99.99
2017-09-27T00:32:38.859Z,99.99
2017-09-27T00:33:38.498Z,99.99
2017-09-27T00:34:38.769Z,99.99
2017-09-27T00:35:38.859Z,99.99
2017-09-27T00:36:38.740Z,99.99
2017-09-27T00:37:38.770Z,99.99
2017-09-27T00:38:38.393Z,99.99
2017-09-27T00:39:38.789Z,99.99
2017-09-27T00:40:38.679Z,99.99
2017-09-27T00:41:38.390Z,99.99
2017-09-27T00:42:38.690Z,99.99
2017-09-27T00:43:38.620Z,99.99
2017-09-27T00:44:38.648Z,99.99
2017-09-27T00:45:38.284Z,99.99
2017-09-27T00:46:38.255Z,99.99
2017-09-27T00:47:38.650Z,99.99
2017-09-27T00:48:38.568Z,99.99
2017-09-27T00:49:38.252Z,99.99
2017-09-27T00:50:38.501Z,99.99
2017-09-27T00:51:38.485Z,99.99
2017-09-27T00:52:38.451Z,99.99
2017-09-27T00:53:38.488Z,99.99
2017-09-27T00:54:38.500Z,99.99
2017-09-27T00:55:38.451Z,99.99
2017-09-27T00:56:38.427Z,99.99
2017-09-27T00:57:38.377Z,99.99
2017-09-27T00:58:38.350Z,99.99
2017-09-27T00:59:38.338Z,99.99
2017-09-27T01:00:38.319Z,99.99
2017-09-27T01:01:38.301Z,99.99
2017-09-27T01:02:38.281Z,99.99
2017-09-27T01:03:38.262Z,99.99
2017-09-27T01:04:38.261Z,99.99
2017-09-27T01:05:38.230Z,99.99
2017-09-27T01:06:38.229Z,99.99
2017-09-27T01:07:37.877Z,99.99
2017-09-27T01:08:37.861Z,99.99
2017-09-27T01:09:38.182Z,99.99
2017-09-27T01:10:37.830Z,99.99
2017-09-27T01:11:37.812Z,99.99
2017-09-27T01:12:38.143Z,99.99
2017-09-27T01:13:37.774Z,99.99
2017-09-27T01:14:38.080Z,99.99
2017-09-27T01:15:38.050Z,99.99
2017-09-27T01:16:38.059Z,99.99
2017-09-27T01:17:38.050Z,99.99
2017-09-27T01:18:38.010Z,99.99
2017-09-27T01:19:37.667Z,99.99
2017-09-27T01:20:37.959Z,99.99
2017-09-27T01:21:37.939Z,99.99
2017-09-27T01:22:37.619Z,99.99
2017-09-27T01:23:37.590Z,99.99
2017-09-27T01:24:37.890Z,99.99
2017-09-27T01:25:37.553Z,99.99
2017-09-27T01:26:37.561Z,99.99
2017-09-27T01:27:37.830Z,99.99
2017-09-27T01:28:37.510Z,99.99
2017-09-27T01:29:37.489Z,99.99
2017-09-27T01:30:37.784Z,99.99
2017-09-27T01:31:37.781Z,99.99
2017-09-27T01:32:37.442Z,99.99
2017-09-27T01:33:37.421Z,99.99
2017-09-27T01:34:37.711Z,99.99
2017-09-27T01:35:37.697Z,99.99
2017-09-27T01:36:37.366Z,99.99
2017-09-27T01:37:37.351Z,99.99
2017-09-27T01:38:37.642Z,99.99
2017-09-27T01:39:37.311Z,99.99
2017-09-27T01:40:37.302Z,99.99
2017-09-27T01:41:37.281Z,99.99
2017-09-27T01:42:37.270Z,99.99
2017-09-27T01:43:37.239Z,99.99
2017-09-27T01:44:37.530Z,99.99
2017-09-27T01:45:37.514Z,99.99
2017-09-27T01:46:37.500Z,99.99
2017-09-27T01:47:37.480Z,99.99
2017-09-27T01:48:37.479Z,99.99
2017-09-27T01:49:37.457Z,99.99
2017-09-27T01:50:37.120Z,99.99
2017-09-27T01:51:37.407Z,99.99
2017-09-27T01:52:37.388Z,99.99
2017-09-27T01:53:37.384Z,99.99
2017-09-27T01:54:37.370Z,99.99
2017-09-27T01:55:37.045Z,99.99
2017-09-27T01:56:37.319Z,99.99
2017-09-27T01:57:36.987Z,99.99
2017-09-27T01:58:37.290Z,99.99
2017-09-27T01:59:36.963Z,99.99
2017-09-27T02:00:37.253Z,99.99
2017-09-27T02:01:36.924Z,99.99
2017-09-27T02:02:37.221Z,99.99
2017-09-27T02:03:37.211Z,99.99
2017-09-27T02:04:37.181Z,99.99
2017-09-27T02:05:37.159Z,99.99
2017-09-27T02:06:37.141Z,99.99
2017-09-27T02:07:36.813Z,99.99
2017-09-27T02:08:37.101Z,99.99
2017-09-27T02:09:36.781Z,99.99
2017-09-27T02:10:36.763Z,99.99
2017-09-27T02:11:36.738Z,99.99
2017-09-27T02:12:37.071Z,99.99
2017-09-27T02:13:36.709Z,99.99
2017-09-27T02:14:37.020Z,99.99
2017-09-27T02:15:36.673Z,99.99
2017-09-27T02:16:36.658Z,99.99
2017-09-27T02:17:36.950Z,99.99
2017-09-27T02:18:36.930Z,99.99
2017-09-27T02:19:36.603Z,99.99
2017-09-27T02:20:36.890Z,99.99
2017-09-27T02:21:36.879Z,99.99
2017-09-27T02:22:36.850Z,99.99
2017-09-27T02:23:36.530Z,99.99
2017-09-27T02:24:36.513Z,99.99
2017-09-27T02:25:36.800Z,99.99
2017-09-27T02:26:36.780Z,99.99
2017-09-27T02:27:36.775Z,99.99
2017-09-27T02:28:36.743Z,99.99
2017-09-27T02:29:36.740Z,99.99
2017-09-27T02:30:36.720Z,99.99
2017-09-27T02:31:36.383Z,99.99
2017-09-27T02:32:36.688Z,99.99
2017-09-27T02:33:36.353Z,99.99
2017-09-27T02:34:36.648Z,99.99
2017-09-27T02:35:36.620Z,99.99
2017-09-27T02:36:36.613Z,99.99
2017-09-27T02:37:36.586Z,99.99
2017-09-27T02:38:36.270Z,99.99
2017-09-27T02:39:36.560Z,99.99
2017-09-27T02:40:36.223Z,99.99
2017-09-27T02:41:36.529Z,99.99
2017-09-27T02:42:36.499Z,99.99
2017-09-27T02:43:36.170Z,99.99
2017-09-27T02:44:36.161Z,99.99
2017-09-27T02:45:36.460Z,99.99
2017-09-27T02:46:36.428Z,99.99
2017-09-27T02:47:36.413Z,99.99
2017-09-27T02:48:36.399Z,99.99
2017-09-27T02:49:36.379Z,99.99
2017-09-27T02:50:36.360Z,99.99
2017-09-27T02:51:36.028Z,99.99
2017-09-27T02:52:36.320Z,99.99
2017-09-27T02:53:36.310Z,99.99
2017-09-27T02:54:36.281Z,99.99
2017-09-27T02:55:35.957Z,99.99
2017-09-27T02:56:36.260Z,99.99
2017-09-27T02:57:36.228Z,99.99
2017-09-27T02:58:35.903Z,99.99
2017-09-27T02:59:36.214Z,99.99
2017-09-27T03:00:35.870Z,99.99
2017-09-27T03:01:36.162Z,99.99
2017-09-27T03:02:36.141Z,99.99
2017-09-27T03:03:36.133Z,99.99
2017-09-27T03:04:36.120Z,99.99
2017-09-27T03:05:36.091Z,99.99
2017-09-27T03:06:35.762Z,99.99
2017-09-27T03:07:36.053Z,99.99
2017-09-27T03:08:36.030Z,99.99
2017-09-27T03:09:36.012Z,99.99
2017-09-27T03:10:36.034Z,99.99
2017-09-27T03:11:35.980Z,99.99
2017-09-27T03:12:35.650Z,99.99
2017-09-27T03:13:35.949Z,99.99
2017-09-27T03:14:35.927Z,99.99
2017-09-27T03:15:35.912Z,99.99
2017-09-27T03:16:35.900Z,99.99
2017-09-27T03:17:35.883Z,99.99
2017-09-27T03:18:35.852Z,99.99
2017-09-27T03:19:35.531Z,99.99
2017-09-27T03:20:35.823Z,99.99
2017-09-27T03:21:35.817Z,99.99
2017-09-27T03:22:35.781Z,99.99
2017-09-27T03:23:35.460Z,99.99
2017-09-27T03:24:35.750Z,99.99
2017-09-27T03:25:35.733Z,99.99
2017-09-27T03:26:35.406Z,99.99
2017-09-27T03:27:35.691Z,99.99
2017-09-27T03:28:35.680Z,99.99
2017-09-27T03:29:35.660Z,99.99
2017-09-27T03:30:35.657Z,99.99
2017-09-27T03:31:35.630Z,99.99
2017-09-27T03:32:35.611Z,99.99
2017-09-27T03:33:35.590Z,99.99
2017-09-27T03:34:35.580Z,99.99
2017-09-27T03:35:35.564Z,99.99
2017-09-27T03:36:35.544Z,99.99
2017-09-27T03:37:35.531Z,99.99
2017-09-27T03:38:35.497Z,99.99
2017-09-27T03:39:35.484Z,99.99
2017-09-27T03:40:35.470Z,99.99
2017-09-27T03:41:35.459Z,99.99
2017-09-27T03:42:35.429Z,99.99
2017-09-27T03:43:35.427Z,99.99
2017-09-27T03:44:35.085Z,99.99
2017-09-27T03:45:35.383Z,99.99
2017-09-27T03:46:35.050Z,99.99
2017-09-27T03:47:35.028Z,99.99
2017-09-27T03:48:35.010Z,99.99
2017-09-27T03:49:34.993Z,99.99
2017-09-27T03:50:35.284Z,99.99
2017-09-27T03:51:34.960Z,99.99
2017-09-27T03:52:35.250Z,99.99
2017-09-27T03:53:35.240Z,99.99
2017-09-27T03:54:35.230Z,99.99
2017-09-27T03:55:35.200Z,99.99
2017-09-27T03:56:35.175Z,99.99
2017-09-27T03:57:35.191Z,99.99
2017-09-27T03:58:35.151Z,99.99
2017-09-27T03:59:35.130Z,99.99
2017-09-27T04:00:35.109Z,99.99
2017-09-27T04:01:35.089Z,99.99
2017-09-27T04:02:35.071Z,99.99
2017-09-27T04:03:35.064Z,99.99
2017-09-27T04:04:34.730Z,99.99
2017-09-27T04:05:35.020Z,99.99
2017-09-27T04:06:34.998Z,99.99
2017-09-27T04:07:34.979Z,99.99
2017-09-27T04:08:34.960Z,99.99
2017-09-27T04:09:34.939Z,99.99
2017-09-27T04:10:34.920Z,99.99
2017-09-27T04:11:34.911Z,99.99
2017-09-27T04:12:34.588Z,99.99
2017-09-27T04:13:34.889Z,99.99
2017-09-27T04:14:34.867Z,99.99
2017-09-27T04:15:34.528Z,99.99
2017-09-27T04:16:34.541Z,99.99
2017-09-27T04:17:34.810Z,99.99
2017-09-27T04:18:34.780Z,99.99
2017-09-27T04:19:34.454Z,99.99
2017-09-27T04:20:34.749Z,99.99
2017-09-27T04:21:34.428Z,99.99
2017-09-27T04:22:34.717Z,99.99
2017-09-27T04:23:34.698Z,99.99
2017-09-27T04:24:34.686Z,99.99
2017-09-27T04:25:34.349Z,99.99
2017-09-27T04:26:34.640Z,99.99
2017-09-27T04:27:34.640Z,99.99
2017-09-27T04:28:34.617Z,99.99
2017-09-27T04:29:34.588Z,99.99
2017-09-27T04:30:34.569Z,99.99
2017-09-27T04:31:34.259Z,99.99
2017-09-27T04:32:34.540Z,99.99
2017-09-27T04:33:34.203Z,99.99
2017-09-27T04:34:34.189Z,99.99
2017-09-27T04:35:34.489Z,99.99
2017-09-27T04:36:34.474Z,99.99
2017-09-27T04:37:34.450Z,99.99
2017-09-27T04:38:34.431Z,99.99
2017-09-27T04:39:34.406Z,99.99
2017-09-27T04:40:34.400Z,99.99
2017-09-27T04:41:34.070Z,99.99
2017-09-27T04:42:34.369Z,99.99
2017-09-27T04:43:34.032Z,99.99
2017-09-27T04:44:34.316Z,99.99
2017-09-27T04:45:34.311Z,99.99
2017-09-27T04:46:33.970Z,99.99
2017-09-27T04:47:34.268Z,99.99
2017-09-27T04:48:34.251Z,99.99
2017-09-27T04:49:34.233Z,99.99
2017-09-27T04:50:34.220Z,99.99
2017-09-27T04:51:34.198Z,99.99
2017-09-27T04:52:34.179Z,99.99
2017-09-27T04:53:33.849Z,99.99
2017-09-27T04:54:34.140Z,99.99
2017-09-27T04:55:33.820Z,99.99
2017-09-27T04:56:33.798Z,99.99
2017-09-27T04:57:33.776Z,99.99
2017-09-27T04:58:33.758Z,99.99
2017-09-27T04:59:33.749Z,99.99
2017-09-27T05:00:34.049Z,99.99
2017-09-27T05:01:33.706Z,99.99
2017-09-27T05:02:33.999Z,99.99
2017-09-27T05:03:33.978Z,99.99
2017-09-27T05:04:33.970Z,99.99
2017-09-27T05:05:33.644Z,99.99
2017-09-27T05:06:33.620Z,99.99
2017-09-27T05:07:33.919Z,99.99
2017-09-27T05:08:33.580Z,99.99
2017-09-27T05:09:33.883Z,99.99
2017-09-27T05:10:33.550Z,99.99
2017-09-27T05:11:33.530Z,99.99
2017-09-27T05:12:33.511Z,99.99
2017-09-27T05:13:33.799Z,99.99
2017-09-27T05:14:33.786Z,99.99
2017-09-27T05:15:33.768Z,99.99
2017-09-27T05:16:33.439Z,99.99
2017-09-27T05:17:33.738Z,99.99
2017-09-27T05:18:33.409Z,99.99
2017-09-27T05:19:33.690Z,99.99
2017-09-27T05:20:33.720Z,99.99
2017-09-27T05:21:33.660Z,99.99
2017-09-27T05:22:33.668Z,99.99
2017-09-27T05:23:33.309Z,99.99
2017-09-27T05:24:33.727Z,99.99
2017-09-27T05:25:33.589Z,99.99
2017-09-27T05:26:33.701Z,99.99
2017-09-27T05:27:33.551Z,99.99
2017-09-27T05:28:33.639Z,99.99
2017-09-27T05:29:33.531Z,99.99
2017-09-27T05:30:33.266Z,99.99
2017-09-27T05:31:33.487Z,99.99
2017-09-27T05:32:33.473Z,99.99
2017-09-27T05:33:33.452Z,99.99
2017-09-27T05:34:33.432Z,99.99
2017-09-27T05:35:33.422Z,99.99
2017-09-27T05:36:33.400Z,99.99
2017-09-27T05:37:33.378Z,99.99
2017-09-27T05:38:33.418Z,99.99
2017-09-27T05:39:33.040Z,99.99
2017-09-27T05:40:33.339Z,99.99
2017-09-27T05:41:33.309Z,99.99
2017-09-27T05:42:33.065Z,99.99
2017-09-27T05:43:32.959Z,99.99
2017-09-27T05:44:33.272Z,99.99
2017-09-27T05:45:33.237Z,99.99
2017-09-27T05:46:33.238Z,99.99
2017-09-27T05:47:33.250Z,99.99
2017-09-27T05:48:33.181Z,99.99
2017-09-27T05:49:33.218Z,99.99
2017-09-27T05:50:33.207Z,99.99
2017-09-27T05:51:33.120Z,99.99
2017-09-27T05:52:33.110Z,99.99
2017-09-27T05:53:32.781Z,99.99
2017-09-27T05:54:33.069Z,99.99
2017-09-27T05:55:32.740Z,99.99
2017-09-27T05:56:33.109Z,99.99
2017-09-27T05:57:32.709Z,99.99
2017-09-27T05:58:33.009Z,99.99
2017-09-27T05:59:32.980Z,99.99
2017-09-27T06:00:32.661Z,99.99
2017-09-27T06:01:32.941Z,99.99
2017-09-27T06:02:33.018Z,99.99
2017-09-27T06:03:33.011Z,99.99
2017-09-27T06:04:32.640Z,99.99
2017-09-27T06:05:32.881Z,99.99
2017-09-27T06:06:32.541Z,99.99
2017-09-27T06:07:32.838Z,99.99
2017-09-27T06:08:32.806Z,99.99
2017-09-27T06:09:32.899Z,99.99
2017-09-27T06:10:32.778Z,99.99
2017-09-27T06:11:32.459Z,99.99
2017-09-27T06:12:32.438Z,99.99
2017-09-27T06:13:32.731Z,99.99
2017-09-27T06:14:32.712Z,99.99
2017-09-27T06:15:32.709Z,99.99
2017-09-27T06:16:32.358Z,99.99
2017-09-27T06:17:32.654Z,99.99
2017-09-27T06:18:32.328Z,99.99
2017-09-27T06:19:32.628Z,99.99
2017-09-27T06:20:32.288Z,99.99
2017-09-27T06:21:32.620Z,99.99
2017-09-27T06:22:32.257Z,99.99
2017-09-27T06:23:32.242Z,99.99
2017-09-27T06:24:32.541Z,99.99
2017-09-27T06:25:32.198Z,99.99
2017-09-27T06:26:32.491Z,99.99
2017-09-27T06:27:32.539Z,99.99
2017-09-27T06:28:32.463Z,99.99
2017-09-27T06:29:32.129Z,99.99
2017-09-27T06:30:32.418Z,99.99
2017-09-27T06:31:32.099Z,99.99
2017-09-27T06:32:32.382Z,99.99
2017-09-27T06:33:32.368Z,99.99
2017-09-27T06:34:32.350Z,99.99
2017-09-27T06:35:32.330Z,99.99
2017-09-27T06:36:32.050Z,99.99
2017-09-27T06:37:31.991Z,99.99
2017-09-27T06:38:32.279Z,99.99
2017-09-27T06:39:31.951Z,99.99
2017-09-27T06:40:32.237Z,99.99
2017-09-27T06:41:32.234Z,99.99
2017-09-27T06:42:31.901Z,99.99
2017-09-27T06:43:31.878Z,99.99
2017-09-27T06:44:32.170Z,99.99
2017-09-27T06:45:31.844Z,99.99
2017-09-27T06:46:32.140Z,99.99
2017-09-27T06:47:31.809Z,99.99
2017-09-27T06:48:32.101Z,99.99
2017-09-27T06:49:32.075Z,99.99
2017-09-27T06:50:31.759Z,99.99
2017-09-27T06:51:32.040Z,99.99
2017-09-27T06:52:32.051Z,99.99
2017-09-27T06:53:31.698Z,99.99
2017-09-27T06:54:31.989Z,99.99
2017-09-27T06:55:31.658Z,99.99
2017-09-27T06:56:31.958Z,99.99
2017-09-27T06:57:31.950Z,99.99
2017-09-27T06:58:31.918Z,99.99
2017-09-27T06:59:31.903Z,99.99
2017-09-27T07:00:31.568Z,99.99
2017-09-27T07:01:31.561Z,99.99
2017-09-27T07:02:31.868Z,99.99
2017-09-27T07:03:31.827Z,99.99
2017-09-27T07:04:31.498Z,99.99
2017-09-27T07:05:31.479Z,99.99
2017-09-27T07:06:31.464Z,99.99
2017-09-27T07:07:31.757Z,99.99
2017-09-27T07:08:31.481Z,99.99
2017-09-27T07:09:31.717Z,99.99
2017-09-27T07:10:31.399Z,99.99
2017-09-27T07:11:31.381Z,99.99
2017-09-27T07:12:31.672Z,99.99
2017-09-27T07:13:31.650Z,99.99
2017-09-27T07:14:31.335Z,99.99
2017-09-27T07:15:31.617Z,99.99
2017-09-27T07:16:31.609Z,99.99
2017-09-27T07:17:31.588Z,99.99
2017-09-27T07:18:31.565Z,99.99
2017-09-27T07:19:31.558Z,99.99
2017-09-27T07:20:31.220Z,99.99
2017-09-27T07:21:31.205Z,99.99
2017-09-27T07:22:31.491Z,99.99
2017-09-27T07:23:31.551Z,99.99
2017-09-27T07:24:31.151Z,99.99
2017-09-27T07:25:31.136Z,99.99
2017-09-27T07:26:31.112Z,99.99
2017-09-27T07:27:31.103Z,99.99
2017-09-27T07:28:31.378Z,99.99
2017-09-27T07:29:31.062Z,99.99
2017-09-27T07:30:31.354Z,99.99
2017-09-27T07:31:31.340Z,99.99
2017-09-27T07:32:31.010Z,99.99
2017-09-27T07:33:31.311Z,99.99
2017-09-27T07:34:31.281Z,99.99
2017-09-27T07:35:31.261Z,99.99
2017-09-27T07:36:31.233Z,99.99
2017-09-27T07:37:31.230Z,99.99
2017-09-27T07:38:31.234Z,99.99
2017-09-27T07:39:31.186Z,99.99
2017-09-27T07:40:31.178Z,99.99
2017-09-27T07:41:31.160Z,99.99
2017-09-27T07:42:31.147Z,99.99
2017-09-27T07:43:31.119Z,99.99
2017-09-27T07:44:31.111Z,99.99
2017-09-27T07:45:31.080Z,99.99
2017-09-27T07:46:31.075Z,99.99
2017-09-27T07:47:31.054Z,99.99
2017-09-27T07:48:31.023Z,99.99
2017-09-27T07:49:31.024Z,99.99
2017-09-27T07:50:31.003Z,99.99
2017-09-27T07:51:30.980Z,99.99
2017-09-27T07:52:30.964Z,99.99
2017-09-27T07:53:30.981Z,99.99
2017-09-27T07:54:30.919Z,99.99
2017-09-27T07:55:30.590Z,99.99
2017-09-27T07:56:30.890Z,99.99
2017-09-27T07:57:30.879Z,99.99
2017-09-27T07:58:30.541Z,99.99
2017-09-27T07:59:30.519Z,99.99
2017-09-27T08:00:30.497Z,99.99
2017-09-27T08:01:30.483Z,99.99
2017-09-27T08:02:30.793Z,99.99
2017-09-27T08:03:30.762Z,99.99
2017-09-27T08:04:30.426Z,99.99
2017-09-27T08:05:30.720Z,99.99
2017-09-27T08:06:30.720Z,99.99
2017-09-27T08:07:30.379Z,99.99
2017-09-27T08:08:30.670Z,99.99
2017-09-27T08:09:30.652Z,99.99
2017-09-27T08:10:30.634Z,99.99
2017-09-27T08:11:30.640Z,99.99
2017-09-27T08:12:30.600Z,99.99
2017-09-27T08:13:30.590Z,99.99
2017-09-27T08:14:30.250Z,99.99
2017-09-27T08:15:30.550Z,99.99
2017-09-27T08:16:30.532Z,99.99
2017-09-27T08:17:30.205Z,99.99
2017-09-27T08:18:30.188Z,99.99
2017-09-27T08:19:30.528Z,99.99
2017-09-27T08:20:30.485Z,99.99
2017-09-27T08:21:30.446Z,99.99
2017-09-27T08:22:30.420Z,99.99
2017-09-27T08:23:30.100Z,99.99
2017-09-27T08:24:30.380Z,99.99
2017-09-27T08:25:30.380Z,99.99
2017-09-27T08:26:30.043Z,99.99
2017-09-27T08:27:30.350Z,99.99
2017-09-27T08:28:30.319Z,99.99
2017-09-27T08:29:30.291Z,99.99
2017-09-27T08:30:30.278Z,99.99
2017-09-27T08:31:30.273Z,99.99
2017-09-27T08:32:30.263Z,99.99
2017-09-27T08:33:30.220Z,99.99
2017-09-27T08:34:29.898Z,99.99
2017-09-27T08:35:30.191Z,99.99
2017-09-27T08:36:30.181Z,99.99
2017-09-27T08:37:30.161Z,99.99
2017-09-27T08:38:30.151Z,99.99
2017-09-27T08:39:30.129Z,99.99
2017-09-27T08:40:30.130Z,99.99
2017-09-27T08:41:30.101Z,99.99
2017-09-27T08:42:30.084Z,99.99
2017-09-27T08:43:30.061Z,99.99
2017-09-27T08:44:30.041Z,99.99
2017-09-27T08:45:29.732Z,99.99
2017-09-27T08:46:29.701Z,99.99
2017-09-27T08:47:29.998Z,99.99
2017-09-27T08:48:29.970Z,99.99
2017-09-27T08:49:30.054Z,99.99
2017-09-27T08:50:29.943Z,99.99
2017-09-27T08:51:29.629Z,99.99
2017-09-27T08:52:29.911Z,99.99
2017-09-27T08:53:29.581Z,99.99
2017-09-27T08:54:29.871Z,99.99
2017-09-27T08:55:29.871Z,99.99
2017-09-27T08:56:29.538Z,99.99
2017-09-27T08:57:29.829Z,99.99
2017-09-27T08:58:29.813Z,99.99
2017-09-27T08:59:29.479Z,99.99
2017-09-27T09:00:29.805Z,99.99
2017-09-27T09:01:29.457Z,99.99
2017-09-27T09:02:29.444Z,99.99
2017-09-27T09:03:29.750Z,99.99
2017-09-27T09:04:29.734Z,99.99
2017-09-27T09:05:29.711Z,99.99
2017-09-27T09:06:29.693Z,99.99
2017-09-27T09:07:29.676Z,99.99
2017-09-27T09:08:29.362Z,99.99
2017-09-27T09:09:29.662Z,99.99
2017-09-27T09:10:29.654Z,99.99
2017-09-27T09:11:29.636Z,99.99
2017-09-27T09:12:29.620Z,99.99
2017-09-27T09:13:29.610Z,99.99
2017-09-27T09:14:29.600Z,99.99
2017-09-27T09:15:29.702Z,98.83
2017-09-27T09:16:29.580Z,97.57
2017-09-27T09:17:29.373Z,96.26
2017-09-27T09:18:29.249Z,95.78
2017-09-27T09:19:29.569Z,96.8
2017-09-27T09:20:29.238Z,96.99
2017-09-27T09:21:29.596Z,95.25
2017-09-27T09:22:29.222Z,95.68
2017-09-27T09:23:29.534Z,96.41
2017-09-27T09:24:29.519Z,96.31
2017-09-27T09:25:29.508Z,95.59
2017-09-27T09:26:29.655Z,95.06
2017-09-27T09:27:29.530Z,93.94
2017-09-27T09:28:29.169Z,94.33
2017-09-27T09:29:29.198Z,93.02
2017-09-27T09:30:29.519Z,92.16
2017-09-27T09:31:29.457Z,90.84
2017-09-27T09:32:29.450Z,91.08
2017-09-27T09:33:29.441Z,91.47
2017-09-27T09:34:29.131Z,89.68
2017-09-27T09:35:29.445Z,92.2
2017-09-27T09:36:29.114Z,92.54
2017-09-27T09:37:29.432Z,92.35
2017-09-27T09:38:29.100Z,92.4
2017-09-27T09:39:29.389Z,93.08
2017-09-27T09:40:29.389Z,94.09
2017-09-27T09:41:29.389Z,94.53
2017-09-27T09:42:29.368Z,93.66
2017-09-27T09:43:29.386Z,94.14
2017-09-27T09:44:29.075Z,94.38
2017-09-27T09:45:29.360Z,94.48
2017-09-27T09:46:29.341Z,94.62
2017-09-27T09:47:29.029Z,94.38
2017-09-27T09:48:29.041Z,95.35
2017-09-27T09:49:29.018Z,95.5
2017-09-27T09:50:29.332Z,95.78
2017-09-27T09:51:29.005Z,95.68
2017-09-27T09:52:29.050Z,96.36
2017-09-27T09:53:29.290Z,96.75
2017-09-27T09:54:29.269Z,96.17
2017-09-27T09:55:29.270Z,95.88
2017-09-27T09:56:29.259Z,94.77
2017-09-27T09:57:29.252Z,93.66
2017-09-27T09:58:29.242Z,91.86
2017-09-27T09:59:29.233Z,91.96
2017-09-27T10:00:29.262Z,92.64
2017-09-27T10:01:29.221Z,92.98
2017-09-27T10:02:28.901Z,93.46
2017-09-27T10:03:28.892Z,92.64
2017-09-27T10:04:28.922Z,91.04
2017-09-27T10:05:29.200Z,89.48
2017-09-27T10:06:28.871Z,88.56
2017-09-27T10:07:28.862Z,88.75
2017-09-27T10:08:28.854Z,86.27
2017-09-27T10:09:28.840Z,88.37
2017-09-27T10:10:29.139Z,89.87
2017-09-27T10:11:29.133Z,89.58
2017-09-27T10:12:29.120Z,90.41
2017-09-27T10:13:29.182Z,90.12
2017-09-27T10:14:29.110Z,89.97
2017-09-27T10:15:28.793Z,89.69
2017-09-27T10:16:29.090Z,89.2
2017-09-27T10:17:29.083Z,90.36
2017-09-27T10:18:28.775Z,90.65
2017-09-27T10:19:29.063Z,92.98
2017-09-27T10:20:29.053Z,94.09
2017-09-27T10:21:28.736Z,93.41
2017-09-27T10:22:28.763Z,92.98
2017-09-27T10:23:29.049Z,92.59
2017-09-27T10:24:29.020Z,92.83
2017-09-27T10:25:29.029Z,92.44
2017-09-27T10:26:28.998Z,92.54
2017-09-27T10:27:28.999Z,93.27
2017-09-27T10:28:28.983Z,94.38
2017-09-27T10:29:28.982Z,93.51
2017-09-27T10:30:28.964Z,92.54
2017-09-27T10:31:28.961Z,93.51
2017-09-27T10:32:28.934Z,93.65
2017-09-27T10:33:28.932Z,93.17
2017-09-27T10:34:28.929Z,92.4
2017-09-27T10:35:28.911Z,92.78
2017-09-27T10:36:28.910Z,91.86
2017-09-27T10:37:28.912Z,92.15
2017-09-27T10:38:28.891Z,91.81
2017-09-27T10:39:28.565Z,90.16
2017-09-27T10:40:28.875Z,89.33
2017-09-27T10:41:28.851Z,88.41
2017-09-27T10:42:28.847Z,88.16
2017-09-27T10:43:28.850Z,87.52
2017-09-27T10:44:28.825Z,86.55
2017-09-27T10:45:28.512Z,86.21
2017-09-27T10:46:28.511Z,85.77
2017-09-27T10:47:28.801Z,84.7
2017-09-27T10:48:28.483Z,83.92
2017-09-27T10:49:28.780Z,83.78
2017-09-27T10:50:28.790Z,84.07
2017-09-27T10:51:28.779Z,83.88
2017-09-27T10:52:28.753Z,84.75
2017-09-27T10:53:28.774Z,83.92
2017-09-27T10:54:28.761Z,84.41
2017-09-27T10:55:28.742Z,84.5
2017-09-27T10:56:28.409Z,85.18
2017-09-27T10:57:28.718Z,84.45
2017-09-27T10:58:28.718Z,84.06
2017-09-27T10:59:28.718Z,82.7
2017-09-27T11:00:28.698Z,82.89
2017-09-27T11:01:28.704Z,82.99
2017-09-27T11:02:28.727Z,83.96
2017-09-27T11:03:28.354Z,83.92
2017-09-27T11:04:28.710Z,84.46
2017-09-27T11:05:28.656Z,84.17
2017-09-27T11:06:28.659Z,84.66
2017-09-27T11:07:28.659Z,85
2017-09-27T11:08:28.635Z,85.49
2017-09-27T11:09:28.613Z,85.24
2017-09-27T11:10:28.630Z,83.92
2017-09-27T11:11:28.598Z,83.63
2017-09-27T11:12:28.621Z,84.01
2017-09-27T11:13:28.272Z,84.41
2017-09-27T11:14:28.262Z,83.86
2017-09-27T11:15:28.564Z,83.47
2017-09-27T11:16:28.240Z,83.47
2017-09-27T11:17:28.550Z,82.6
2017-09-27T11:18:28.530Z,84.01
2017-09-27T11:19:28.211Z,84.6
2017-09-27T11:20:28.509Z,83.82
2017-09-27T11:21:28.203Z,83.86
2017-09-27T11:22:28.508Z,83.24
2017-09-27T11:23:28.499Z,82.99
2017-09-27T11:24:28.179Z,82.6
2017-09-27T11:25:28.479Z,81.73
2017-09-27T11:26:28.457Z,81.34
2017-09-27T11:27:28.449Z,82.7
2017-09-27T11:28:28.449Z,82.6
2017-09-27T11:29:28.142Z,81.92
2017-09-27T11:30:28.427Z,81.14
2017-09-27T11:31:28.414Z,81.53
2017-09-27T11:32:28.408Z,81.53
2017-09-27T11:33:28.399Z,82.21
2017-09-27T11:34:28.395Z,81.67
2017-09-27T11:35:28.378Z,81.28
2017-09-27T11:36:28.120Z,81.48
2017-09-27T11:37:28.377Z,80.79
2017-09-27T11:38:28.451Z,80.69
2017-09-27T11:39:28.406Z,79.63
2017-09-27T11:40:28.455Z,80.69
2017-09-27T11:41:28.352Z,79.68
2017-09-27T11:42:28.337Z,80.66
2017-09-27T11:43:28.348Z,81.1
2017-09-27T11:44:28.397Z,82.03
2017-09-27T11:45:28.310Z,82.23
2017-09-27T11:46:28.290Z,83.12
2017-09-27T11:47:28.278Z,83.5
2017-09-27T11:48:28.320Z,81.9
2017-09-27T11:49:28.947Z,82.57
2017-09-27T11:50:28.304Z,83.31
2017-09-27T11:51:27.938Z,84.19
2017-09-27T11:52:28.248Z,83.22
2017-09-27T11:53:28.252Z,82.03
2017-09-27T11:54:28.330Z,81.88
2017-09-27T11:55:28.219Z,80.91
2017-09-27T11:56:28.198Z,81.34
2017-09-27T11:57:28.221Z,80.4
2017-09-27T11:58:27.868Z,79.53
2017-09-27T11:59:28.190Z,79.53
2017-09-27T12:00:27.857Z,79.33
2017-09-27T12:01:27.842Z,78.56
2017-09-27T12:02:27.835Z,79.2
2017-09-27T12:03:27.828Z,80.17
2017-09-27T12:04:27.828Z,79.39
2017-09-27T12:05:28.117Z,79.39
2017-09-27T12:06:28.107Z,80.17
2017-09-27T12:07:28.118Z,80.36
2017-09-27T12:08:27.790Z,80.76
2017-09-27T12:09:28.087Z,79.49
2017-09-27T12:10:28.079Z,79.16
2017-09-27T12:11:28.067Z,81.3
2017-09-27T12:12:28.063Z,79.84
2017-09-27T12:13:28.066Z,79.45
2017-09-27T12:14:28.049Z,80.96
2017-09-27T12:15:27.731Z,81.39
2017-09-27T12:16:27.739Z,80.32
2017-09-27T12:17:28.018Z,80.42
2017-09-27T12:18:28.002Z,80.27
2017-09-27T12:19:27.998Z,79.3
2017-09-27T12:20:27.984Z,78.36
2017-09-27T12:21:27.999Z,78.07
2017-09-27T12:22:28.070Z,78.85
2017-09-27T12:23:27.768Z,77.84
2017-09-27T12:24:27.955Z,78.42
2017-09-27T12:25:27.644Z,78.48
2017-09-27T12:26:28.040Z,78.87
2017-09-27T12:27:27.624Z,79.16
2017-09-27T12:28:27.921Z,79.06
2017-09-27T12:29:27.947Z,79.1
2017-09-27T12:30:27.902Z,78.91
2017-09-27T12:31:27.939Z,79.1
2017-09-27T12:32:27.888Z,77.35
2017-09-27T12:33:27.885Z,77.94
2017-09-27T12:34:27.559Z,78.03
2017-09-27T12:35:27.888Z,77.9
2017-09-27T12:36:27.911Z,78.67
2017-09-27T12:37:27.925Z,78.23
2017-09-27T12:38:27.849Z,78.03
2017-09-27T12:39:27.860Z,80.09
2017-09-27T12:40:27.847Z,79.76
2017-09-27T12:41:27.808Z,79.71
2017-09-27T12:42:27.877Z,80.38
2017-09-27T12:43:27.829Z,79.84
2017-09-27T12:44:27.470Z,78.23
2017-09-27T12:45:27.469Z,79.12
2017-09-27T12:46:27.767Z,79.12
2017-09-27T12:47:27.757Z,80.19
2017-09-27T12:48:27.747Z,80.38
2017-09-27T12:49:27.735Z,81.2
2017-09-27T12:50:27.726Z,80.56
2017-09-27T12:51:27.726Z,78.81
2017-09-27T12:52:27.709Z,77.94
2017-09-27T12:53:27.710Z,78.28